PWSweather.com
Personal Weather Stations
Station Observations
KAZSIERR7
Canyon De Flores, Sierra Vista, AZ 85650

Canyon De FloresSierra Vista, AZ 85650

Lat: 31.5, Lon: -110.26

Elevation: 4645

Station Type: LaCrosse WS-3610 & Boltek Lightning Detector

http://www.lightningring.com/weather/

High Low Average
Temperature 52.5°F11.4°C 46.2°F7.9°C 49.2°F9.6°C
Dew Point 36.9°F2.7°C 33.9°F1.1°C 35.6°F2.0°C
Winds 9.9 mph 15.9 kmh 2.2 mph 3.5 kmh 7.0 mph SE11.3 kmh SE
Wind Gusts 34.2 mph55.0 kmh 13.1 mph21.1 kmh 20.0 mph32.2 kmh
Humidity 68% 51% 59%
Pressure 29.84 in1010.5 mb 29.73 in1006.8 mb -
Precipitation 0.00 in0.0 mm - -
Hour Temp Dew Point Humidity Winds Wind Gusts Pressure Precip Precip Rate Daily Precip Total
12:09 AM 52.3°F11.3°C 36.6°F2.6°C 55% 6.6 mph SE10.6 kmh SE 18.5 mph29.8 kmh 29.84 in1010.5 mb 0.00 in0.0 mm 0.00 in0.0 mm 0.00 in0.0 mm
12:20 AM 52.1°F11.2°C 36.4°F2.4°C 55% 9.5 mph S15.3 kmh S 25.5 mph41.0 kmh 29.83 in1010.2 mb 0.00 in0.0 mm 0.00 in0.0 mm 0.00 in0.0 mm
12:30 AM 51.6°F10.9°C 36.9°F2.7°C 57% 5.6 mph SE9.0 kmh SE 23.0 mph37.0 kmh 29.84 in1010.5 mb 0.00 in0.0 mm 0.00 in0.0 mm 0.00 in0.0 mm
12:40 AM 52.5°F11.4°C 35.9°F2.2°C 53% 7.1 mph S11.4 kmh S 20.8 mph33.5 kmh 29.83 in1010.2 mb 0.00 in0.0 mm 0.00 in0.0 mm 0.00 in0.0 mm
12:50 AM 51.9°F11.1°C 36.3°F2.4°C 55% 5.8 mph SSE9.3 kmh SSE 20.1 mph32.3 kmh 29.83 in1010.2 mb 0.00 in0.0 mm 0.00 in0.0 mm 0.00 in0.0 mm
01:01 AM 51.9°F11.1°C 36.3°F2.4°C 55% 7.9 mph SE12.7 kmh SE 17.8 mph28.6 kmh 29.83 in1010.2 mb 0.00 in0.0 mm 0.00 in0.0 mm 0.00 in0.0 mm
01:11 AM 51.6°F10.9°C 36.5°F2.5°C 56% 7.0 mph SE11.3 kmh SE 20.5 mph33.0 kmh 29.84 in1010.5 mb 0.00 in0.0 mm 0.00 in0.0 mm 0.00 in0.0 mm
01:21 AM 51.4°F10.8°C 36.3°F2.4°C 56% 6.7 mph SSE10.8 kmh SSE 18.5 mph29.8 kmh 29.84 in1010.5 mb 0.00 in0.0 mm 0.00 in0.0 mm 0.00 in0.0 mm
01:31 AM 51.2°F10.7°C 35.6°F2.0°C 55% 7.6 mph SSE12.2 kmh SSE 16.1 mph25.9 kmh 29.83 in1010.2 mb 0.00 in0.0 mm 0.00 in0.0 mm 0.00 in0.0 mm
01:41 AM 51.4°F10.8°C 35.3°F1.8°C 54% 5.8 mph SE9.3 kmh SE 15.4 mph24.8 kmh 29.83 in1010.2 mb 0.00 in0.0 mm 0.00 in0.0 mm 0.00 in0.0 mm
01:51 AM 51.3°F10.7°C 35.3°F1.8°C 54% 8.6 mph ESE13.8 kmh ESE 17.2 mph27.7 kmh 29.83 in1010.2 mb 0.00 in0.0 mm 0.00 in0.0 mm 0.00 in0.0 mm
02:01 AM 51.1°F10.6°C 35.6°F2.0°C 55% 7.2 mph SE11.6 kmh SE 18.5 mph29.8 kmh 29.82 in1009.8 mb 0.00 in0.0 mm 0.00 in0.0 mm 0.00 in0.0 mm
02:11 AM 50.4°F10.2°C 35.8°F2.1°C 57% 7.1 mph ESE11.4 kmh ESE 17.8 mph28.6 kmh 29.82 in1009.8 mb 0.00 in0.0 mm 0.00 in0.0 mm 0.00 in0.0 mm
02:21 AM 50.6°F10.3°C 36.0°F2.2°C 57% 7.2 mph ESE11.6 kmh ESE 17.8 mph28.6 kmh 29.81 in1009.5 mb 0.00 in0.0 mm 0.00 in0.0 mm 0.00 in0.0 mm
02:31 AM 50.5°F10.3°C 35.9°F2.2°C 57% 5.1 mph SE8.2 kmh SE 18.3 mph29.5 kmh 29.82 in1009.8 mb 0.00 in0.0 mm 0.00 in0.0 mm 0.00 in0.0 mm
02:42 AM 50.7°F10.4°C 35.2°F1.8°C 55% 7.6 mph E12.2 kmh E 17.4 mph28.0 kmh 29.81 in1009.5 mb 0.00 in0.0 mm 0.00 in0.0 mm 0.00 in0.0 mm
02:52 AM 51.6°F10.9°C 34.0°F1.1°C 51% 6.3 mph SE10.1 kmh SE 17.6 mph28.3 kmh 29.80 in1009.1 mb 0.00 in0.0 mm 0.00 in0.0 mm 0.00 in0.0 mm
03:02 AM 51.3°F10.7°C 34.8°F1.6°C 53% 7.7 mph SE12.4 kmh SE 17.4 mph28.0 kmh 29.80 in1009.1 mb 0.00 in0.0 mm 0.00 in0.0 mm 0.00 in0.0 mm
03:12 AM 50.9°F10.5°C 34.4°F1.3°C 53% 6.0 mph ESE9.7 kmh ESE 17.0 mph27.4 kmh 29.80 in1009.1 mb 0.00 in0.0 mm 0.00 in0.0 mm 0.00 in0.0 mm
03:22 AM 50.6°F10.3°C 34.1°F1.2°C 53% 8.7 mph E14.0 kmh E 19.0 mph30.6 kmh 29.80 in1009.1 mb 0.00 in0.0 mm 0.00 in0.0 mm 0.00 in0.0 mm
03:32 AM 50.6°F10.3°C 34.6°F1.4°C 54% 6.9 mph SSE11.1 kmh SSE 19.4 mph31.2 kmh 29.79 in1008.8 mb 0.00 in0.0 mm 0.00 in0.0 mm 0.00 in0.0 mm
03:42 AM 50.4°F10.2°C 34.4°F1.3°C 54% 8.4 mph SE13.5 kmh SE 17.2 mph27.7 kmh 29.79 in1008.8 mb 0.00 in0.0 mm 0.00 in0.0 mm 0.00 in0.0 mm
03:52 AM 50.4°F10.2°C 33.9°F1.1°C 53% 9.2 mph ESE14.8 kmh ESE 20.3 mph32.7 kmh 29.78 in1008.5 mb 0.00 in0.0 mm 0.00 in0.0 mm 0.00 in0.0 mm
04:02 AM 50.1°F10.1°C 34.6°F1.4°C 55% 9.8 mph SE15.8 kmh SE 19.9 mph32.0 kmh 29.78 in1008.5 mb 0.00 in0.0 mm 0.00 in0.0 mm 0.00 in0.0 mm
04:13 AM 49.1°F9.5°C 34.6°F1.4°C 57% 8.9 mph E14.3 kmh E 20.3 mph32.7 kmh 29.78 in1008.5 mb 0.00 in0.0 mm 0.00 in0.0 mm 0.00 in0.0 mm
04:23 AM 48.5°F9.2°C 35.3°F1.8°C 60% 9.2 mph E14.8 kmh E 20.1 mph32.3 kmh 29.78 in1008.5 mb 0.00 in0.0 mm 0.00 in0.0 mm 0.00 in0.0 mm
04:33 AM 48.4°F9.1°C 35.7°F2.1°C 61% 7.3 mph ESE11.7 kmh ESE 20.1 mph32.3 kmh 29.78 in1008.5 mb 0.00 in0.0 mm 0.00 in0.0 mm 0.00 in0.0 mm
04:43 AM 48.0°F8.9°C 35.3°F1.8°C 61% 8.2 mph E13.2 kmh E 19.2 mph30.9 kmh 29.77 in1008.1 mb 0.00 in0.0 mm 0.00 in0.0 mm 0.00 in0.0 mm
04:53 AM 47.9°F8.8°C 35.2°F1.8°C 61% 5.0 mph ESE8.0 kmh ESE 20.8 mph33.5 kmh 29.77 in1008.1 mb 0.00 in0.0 mm 0.00 in0.0 mm 0.00 in0.0 mm
05:03 AM 47.5°F8.6°C 35.6°F2.0°C 63% 9.0 mph E14.5 kmh E 18.5 mph29.8 kmh 29.77 in1008.1 mb 0.00 in0.0 mm 0.00 in0.0 mm 0.00 in0.0 mm
05:13 AM 47.2°F8.4°C 35.7°F2.1°C 64% 8.0 mph SE12.9 kmh SE 20.3 mph32.7 kmh 29.77 in1008.1 mb 0.00 in0.0 mm 0.00 in0.0 mm 0.00 in0.0 mm
05:24 AM 47.7°F8.7°C 35.4°F1.9°C 62% 6.2 mph ESE10.0 kmh ESE 23.2 mph37.3 kmh 29.77 in1008.1 mb 0.00 in0.0 mm 0.00 in0.0 mm 0.00 in0.0 mm
05:34 AM 47.6°F8.7°C 35.3°F1.8°C 62% 2.2 mph SE3.5 kmh SE 13.1 mph21.1 kmh 29.77 in1008.1 mb 0.00 in0.0 mm 0.00 in0.0 mm 0.00 in0.0 mm
05:44 AM 47.5°F8.6°C 35.3°F1.8°C 62% 6.9 mph E11.1 kmh E 16.3 mph26.2 kmh 29.76 in1007.8 mb 0.00 in0.0 mm 0.00 in0.0 mm 0.00 in0.0 mm
05:54 AM 47.7°F8.7°C 35.4°F1.9°C 62% 9.9 mph SE15.9 kmh SE 24.3 mph39.1 kmh 29.76 in1007.8 mb 0.00 in0.0 mm 0.00 in0.0 mm 0.00 in0.0 mm
06:04 AM 47.0°F8.3°C 36.3°F2.4°C 66% 8.9 mph SE14.3 kmh SE 34.2 mph55.0 kmh 29.75 in1007.5 mb 0.00 in0.0 mm 0.00 in0.0 mm 0.00 in0.0 mm
06:14 AM 46.7°F8.2°C 36.8°F2.7°C 68% 6.9 mph ESE11.1 kmh ESE 17.8 mph28.6 kmh 29.75 in1007.5 mb 0.00 in0.0 mm 0.00 in0.0 mm 0.00 in0.0 mm
06:24 AM 46.3°F7.9°C 36.4°F2.4°C 68% 5.4 mph ESE8.7 kmh ESE 17.6 mph28.3 kmh 29.76 in1007.8 mb 0.00 in0.0 mm 0.00 in0.0 mm 0.00 in0.0 mm
06:34 AM 46.2°F7.9°C 36.3°F2.4°C 68% 8.6 mph ESE13.8 kmh ESE 21.2 mph34.1 kmh 29.75 in1007.5 mb 0.00 in0.0 mm 0.00 in0.0 mm 0.00 in0.0 mm
06:44 AM 46.4°F8.0°C 36.2°F2.3°C 67% 6.5 mph SSE10.5 kmh SSE 22.5 mph36.2 kmh 29.75 in1007.5 mb 0.00 in0.0 mm 0.00 in0.0 mm 0.00 in0.0 mm
06:55 AM 46.3°F7.9°C 36.5°F2.5°C 68% 6.7 mph SE10.8 kmh SE 24.3 mph39.1 kmh 29.74 in1007.1 mb 0.00 in0.0 mm 0.00 in0.0 mm 0.00 in0.0 mm
07:05 AM 46.3°F7.9°C 36.0°F2.2°C 67% 8.1 mph SE13.0 kmh SE 26.1 mph42.0 kmh 29.73 in1006.8 mb 0.00 in0.0 mm 0.00 in0.0 mm 0.00 in0.0 mm
07:15 AM 46.5°F8.1°C 36.2°F2.3°C 67% 6.2 mph SE10.0 kmh SE 30.1 mph48.4 kmh 29.74 in1007.1 mb 0.00 in0.0 mm 0.00 in0.0 mm 0.00 in0.0 mm
07:25 AM 47.1°F8.4°C 36.0°F2.2°C 65% 9.9 mph S15.9 kmh S 25.7 mph41.4 kmh 29.73 in1006.8 mb 0.00 in0.0 mm 0.00 in0.0 mm 0.00 in0.0 mm
07:35 AM 46.9°F8.3°C 36.2°F2.3°C 66% 8.3 mph SSE13.4 kmh SSE 26.3 mph42.3 kmh 29.74 in1007.1 mb 0.00 in0.0 mm 0.00 in0.0 mm 0.00 in0.0 mm
07:45 AM 46.5°F8.1°C 36.2°F2.3°C 67% 9.0 mph SSE14.5 kmh SSE 20.8 mph33.5 kmh 29.73 in1006.8 mb 0.00 in0.0 mm 0.00 in0.0 mm 0.00 in0.0 mm
07:55 AM 46.5°F8.1°C 36.2°F2.3°C 67% 7.9 mph SSE12.7 kmh SSE 21.2 mph34.1 kmh 29.74 in1007.1 mb 0.00 in0.0 mm 0.00 in0.0 mm 0.00 in0.0 mm